This is the latest recevied weather packets stored in our database for station/object SPDRWX. If no packets are shown the sender has not sent any weather packets the latest 10 day(s).
| Time | Temp. | Humidity | Pressure | Rain* | Wind** | Luminosity | Snow |
|---|---|---|---|---|---|---|---|
| 1778007667 | 7.78° C | 73% | 1010.3 hPa | 0.25 mm | - | - | - |
| 1778007368 | 7.78° C | 73% | 1010.3 hPa | 0.25 mm | - | - | - |
| 1778003746 | 6.11° C | 77% | 1009.8 hPa | 17.78 mm | - | - | - |
| 1778003143 | 6.11° C | 78% | 1009.8 hPa | 16.76 mm | - | - | - |
| 1778002841 | 5.56° C | 78% | 1009.6 hPa | 16.26 mm | - | - | - |
| 1778002540 | 5.56° C | 78% | 1009.6 hPa | 15.75 mm | - | - | - |
| 1778001641 | 5° C | 80% | 1009.6 hPa | 14.73 mm | - | - | - |
| 1778000734 | 5° C | 81% | 1009.4 hPa | 13.21 mm | - | - | - |
| 1778000491 | 4.44° C | 81% | 1009.3 hPa | 12.95 mm | - | - | - |
| 1778000433 | 4.44° C | 81% | 1009.3 hPa | 12.95 mm | - | - | - |
| 1777999830 | 4.44° C | 82% | 1009.3 hPa | 12.19 mm | - | - | - |
| 1777999226 | 3.89° C | 82% | 1009.3 hPa | 11.68 mm | - | - | - |
| 1777998624 | 3.33° C | 83% | 1009.2 hPa | 11.18 mm | - | - | - |
| 1777998322 | 3.33° C | 83% | 1009.2 hPa | 10.67 mm | - | - | - |
| 1777998021 | 3.33° C | 83% | 1009.2 hPa | 10.41 mm | - | - | - |
| 1777997720 | 2.78° C | 83% | 1009.2 hPa | 9.91 mm | - | - | - |
| 1777997418 | 2.78° C | 83% | 1009.2 hPa | 9.65 mm | - | - | - |
| 1777997117 | 2.78° C | 83% | 1009.1 hPa | 9.4 mm | - | - | - |
| 1777996817 | 2.78° C | 83% | 1009.1 hPa | 9.4 mm | - | - | - |
| 1777996213 | 2.78° C | 84% | 1009.1 hPa | 8.89 mm | - | - | - |
| 1777995913 | 2.22° C | 84% | 1009 hPa | 8.64 mm | - | - | - |
| 1777995611 | 2.22° C | 84% | 1009 hPa | 8.38 mm | - | - | - |
| 1777995011 | 2.22° C | 85% | 1008.7 hPa | 7.87 mm | - | - | - |
| 1777993202 | 1.11° C | 85% | 1008.7 hPa | 7.11 mm | - | - | - |
| 1777992901 | 1.11° C | 85% | 1008.6 hPa | 7.11 mm | - | - | - |
* Rain since midnight (hover to see other rain measurements)
** Current wind speed in m/s (hover to see current wind gust speed)